Time;durP1;ratioP1;P1;durP2;ratioP2;P2;SDS_P1;SDS_P2;PMS_P1;PMS_P2;Temp;Humidity;BMP_temperature;BMP_pressure;BME280_temperature;BME280_humidity;BME280_pressure;Samples;Min_cycle;Max_cycle;Signal;HPM_P1;HPM_P2
2021/06/06 00:02:19;;;;;;;6.22;4.25;;;;;;;15.34;100.00;96703.06;5038085;28;20291;-73
2021/06/06 00:04:45;;;;;;;6.45;3.92;;;;;;;15.29;100.00;96708.13;5038993;28;20228;-72
2021/06/06 00:07:12;;;;;;;7.53;4.30;;;;;;;15.28;100.00;96703.84;5041590;28;20201;-72
2021/06/06 00:09:38;;;;;;;5.78;4.57;;;;;;;15.29;100.00;96697.50;5042439;28;20204;-73
2021/06/06 00:12:06;;;;;;;5.75;4.20;;;;;;;15.29;100.00;96702.81;5042057;28;20212;-71
2021/06/06 00:14:36;;;;;;;7.32;4.35;;;;;;;15.07;100.00;96695.91;5041970;28;20730;-73
2021/06/06 00:17:05;;;;;;;6.05;4.25;;;;;;;15.13;100.00;96695.09;5041357;28;20202;-72
2021/06/06 00:19:33;;;;;;;8.15;4.80;;;;;;;15.23;100.00;96700.13;5042256;28;20213;-73
2021/06/06 00:22:00;;;;;;;8.05;4.72;;;;;;;15.15;100.00;96693.09;5042349;28;20225;-73
2021/06/06 00:24:28;;;;;;;7.13;4.72;;;;;;;15.12;100.00;96693.50;5041137;28;20236;-73
2021/06/06 00:26:55;;;;;;;7.15;5.22;;;;;;;15.20;100.00;96696.00;5040214;28;20606;-73
2021/06/06 00:29:22;;;;;;;6.03;4.30;;;;;;;15.14;100.00;96696.75;5040621;28;20205;-72
2021/06/06 00:31:48;;;;;;;7.70;4.80;;;;;;;15.13;100.00;96692.44;5041153;28;20557;-72
2021/06/06 00:34:15;;;;;;;8.55;4.40;;;;;;;15.14;100.00;96696.75;5042451;28;20239;-72
2021/06/06 00:36:42;;;;;;;6.40;4.53;;;;;;;15.16;100.00;96694.75;5041235;28;20205;-72
2021/06/06 00:39:08;;;;;;;7.28;4.88;;;;;;;15.11;100.00;96697.16;5040574;28;20204;-72
2021/06/06 00:41:37;;;;;;;8.18;4.85;;;;;;;14.97;100.00;96694.56;5040772;28;20209;-72
2021/06/06 00:44:04;;;;;;;6.32;4.78;;;;;;;15.00;100.00;96691.56;5040961;28;20248;-73
2021/06/06 00:46:30;;;;;;;6.50;4.93;;;;;;;15.01;100.00;96694.00;5039042;28;20225;-72
2021/06/06 00:48:58;;;;;;;7.38;5.32;;;;;;;15.08;100.00;96689.56;5040770;28;20228;-72
2021/06/06 00:51:28;;;;;;;7.78;5.43;;;;;;;15.08;100.00;96692.22;5041155;28;20201;-72
2021/06/06 00:54:02;;;;;;;7.70;5.55;;;;;;;15.16;100.00;96694.75;5040401;28;20245;-72
2021/06/06 00:56:28;;;;;;;5.60;4.30;;;;;;;15.06;100.00;96690.75;5040241;28;20324;-72
2021/06/06 00:58:56;;;;;;;8.02;5.35;;;;;;;15.11;100.00;96685.69;5041551;28;21243;-73
2021/06/06 01:01:24;;;;;;;12.60;5.60;;;;;;;15.11;100.00;96688.34;5040938;28;20208;-73
2021/06/06 01:03:52;;;;;;;7.75;5.57;;;;;;;15.11;100.00;96686.53;5040463;28;20592;-73
2021/06/06 01:06:25;;;;;;;7.57;5.65;;;;;;;15.05;100.00;96687.31;5039579;28;21113;-72
2021/06/06 01:08:52;;;;;;;7.38;5.53;;;;;;;15.00;100.00;96687.06;5040695;28;20270;-72
2021/06/06 01:11:26;;;;;;;8.63;5.55;;;;;;;15.09;100.00;96683.25;5039439;28;20250;-72
2021/06/06 01:13:56;;;;;;;9.38;5.70;;;;;;;15.03;100.00;96684.03;5040391;28;20231;-72
2021/06/06 01:16:29;;;;;;;9.98;6.25;;;;;;;15.06;100.00;96683.63;5039467;28;20216;-72
2021/06/06 01:18:57;;;;;;;8.27;6.15;;;;;;;15.05;100.00;96682.00;5040243;28;20198;-71
2021/06/06 01:21:34;;;;;;;8.93;5.88;;;;;;;15.00;100.00;96688.91;5039789;28;20206;-71
2021/06/06 01:24:15;;;;;;;8.77;6.25;;;;;;;15.03;100.00;96678.72;5040803;28;20224;-72
2021/06/06 01:26:46;;;;;;;9.73;6.30;;;;;;;15.07;100.00;96682.63;5038598;28;20225;-73
2021/06/06 01:29:26;;;;;;;9.52;6.55;;;;;;;15.08;100.00;96681.59;5039328;28;20193;-73
2021/06/06 01:31:55;;;;;;;11.13;6.55;;;;;;;15.08;100.00;96681.59;5040431;28;20608;-72
2021/06/06 01:34:25;;;;;;;9.68;6.45;;;;;;;14.93;100.00;96683.56;5039326;28;20306;-73
2021/06/06 01:36:55;;;;;;;9.50;6.40;;;;;;;14.95;100.00;96665.59;5039008;28;20250;-72
2021/06/06 01:39:25;;;;;;;10.60;6.65;;;;;;;14.91;100.00;96672.28;5039259;28;20216;-72
2021/06/06 01:41:55;;;;;;;8.70;6.10;;;;;;;15.01;100.00;96671.97;5040789;28;20235;-72
2021/06/06 01:44:26;;;;;;;12.68;6.60;;;;;;;15.09;100.00;96671.81;5039381;28;20278;-72
2021/06/06 01:46:55;;;;;;;10.27;6.38;;;;;;;14.99;100.00;96666.03;5038855;28;20233;-72
2021/06/06 01:49:23;;;;;;;9.40;6.72;;;;;;;15.05;100.00;96674.03;5039558;28;20205;-72
2021/06/06 01:51:53;;;;;;;10.57;6.75;;;;;;;15.03;100.00;96673.41;5039110;28;20197;-72
2021/06/06 01:54:23;;;;;;;9.38;6.30;;;;;;;14.89;100.00;96665.53;5039539;28;20920;-72
2021/06/06 01:56:52;;;;;;;11.30;7.05;;;;;;;15.04;100.00;96661.75;5038988;28;20808;-73
2021/06/06 01:59:23;;;;;;;13.02;6.45;;;;;;;15.03;100.00;96657.50;5039159;28;20201;-72
2021/06/06 02:01:50;;;;;;;10.13;7.15;;;;;;;15.10;100.00;96662.84;5039888;28;20695;-72
2021/06/06 02:04:17;;;;;;;9.90;6.15;;;;;;;15.11;100.00;96660.00;5039419;28;20275;-72
2021/06/06 02:06:47;;;;;;;12.15;6.82;;;;;;;15.03;100.00;96652.19;5037648;28;20225;-71
2021/06/06 02:09:19;;;;;;;9.75;6.10;;;;;;;14.97;100.00;96652.94;5039065;28;20213;-72
2021/06/06 02:11:49;;;;;;;10.35;5.93;;;;;;;14.90;100.00;96661.88;5037224;28;20286;-72
2021/06/06 02:14:19;;;;;;;10.73;6.63;;;;;;;14.88;100.00;96659.41;5038859;28;20217;-72
2021/06/06 02:16:49;;;;;;;10.50;6.47;;;;;;;14.95;100.00;96652.31;5037877;28;20267;-73
2021/06/06 02:19:15;;;;;;;10.73;5.90;;;;;;;14.96;100.00;96658.47;5039916;28;20205;-72
2021/06/06 02:21:42;;;;;;;9.70;5.97;;;;;;;14.95;100.00;96657.63;5039175;28;20216;-72
2021/06/06 02:24:09;;;;;;;9.95;6.43;;;;;;;14.90;100.00;96660.03;5038253;28;20228;-72
2021/06/06 02:26:43;;;;;;;9.35;6.45;;;;;;;14.99;100.00;96656.22;5037576;28;20248;-72
2021/06/06 02:29:18;;;;;;;9.70;6.65;;;;;;;15.02;100.00;96661.16;5039066;28;20991;-72
2021/06/06 02:31:51;;;;;;;9.40;5.72;;;;;;;14.98;100.00;96662.56;5038694;28;20211;-73
2021/06/06 02:34:24;;;;;;;10.18;6.57;;;;;;;14.93;100.00;96662.31;5039566;28;20225;-72
2021/06/06 02:36:54;;;;;;;11.23;6.20;;;;;;;14.92;100.00;96660.66;5037645;28;20208;-72
2021/06/06 02:39:25;;;;;;;10.50;6.68;;;;;;;14.92;100.00;96654.56;5038284;28;20210;-72
2021/06/06 02:41:54;;;;;;;13.63;7.38;;;;;;;14.93;100.00;96657.00;5038070;28;20220;-73
2021/06/06 02:44:27;;;;;;;10.95;6.72;;;;;;;14.87;100.00;96647.16;5039210;28;20240;-72
2021/06/06 02:46:54;;;;;;;11.00;6.97;;;;;;;14.95;100.00;96654.97;5037604;28;21011;-73
2021/06/06 02:49:23;;;;;;;11.82;7.15;;;;;;;14.90;100.00;96651.25;5038318;28;20232;-72
2021/06/06 02:51:54;;;;;;;11.93;7.20;;;;;;;14.94;100.00;96648.03;5039113;28;20198;-72
2021/06/06 02:54:25;;;;;;;11.57;7.35;;;;;;;14.92;100.00;96644.75;5038240;28;20237;-72
2021/06/06 02:56:55;;;;;;;11.80;7.38;;;;;;;14.91;100.00;96647.59;5037931;28;20292;-72
2021/06/06 02:59:27;;;;;;;12.57;7.28;;;;;;;14.95;100.00;96641.69;5039136;28;20239;-72
2021/06/06 03:01:56;;;;;;;11.65;7.80;;;;;;;14.95;100.00;96643.53;5038308;28;20219;-73
2021/06/06 03:04:26;;;;;;;12.75;8.13;;;;;;;14.93;100.00;96641.09;5038098;28;20662;-72
2021/06/06 03:06:57;;;;;;;12.88;8.05;;;;;;;14.92;100.00;96642.09;5038072;28;20217;-73
2021/06/06 03:09:25;;;;;;;15.52;8.27;;;;;;;14.86;100.00;96642.84;5039109;28;20212;-71
2021/06/06 03:11:54;;;;;;;13.88;7.40;;;;;;;14.82;100.00;96638.97;5039089;28;20209;-72
2021/06/06 03:14:23;;;;;;;10.73;7.40;;;;;;;14.80;100.00;96630.38;5037761;28;20256;-72
2021/06/06 03:16:56;;;;;;;10.98;7.63;;;;;;;14.80;100.00;96638.34;5037119;28;20224;-72
2021/06/06 03:19:24;;;;;;;11.93;7.97;;;;;;;14.73;100.00;96629.50;5037545;28;20213;-72
2021/06/06 03:21:52;;;;;;;10.02;6.65;;;;;;;14.80;100.00;96637.50;5039122;28;20595;-72
2021/06/06 03:24:27;;;;;;;11.05;7.25;;;;;;;14.82;100.00;96625.69;5037940;28;20228;-72
2021/06/06 03:26:54;;;;;;;14.02;8.55;;;;;;;14.87;100.00;96631.22;5037294;28;20286;-72
2021/06/06 03:29:25;;;;;;;13.57;6.60;;;;;;;14.84;100.00;96626.31;5039197;28;20225;-71
2021/06/06 03:31:58;;;;;;;11.63;6.78;;;;;;;14.86;100.00;96634.09;5038250;28;20209;-72
2021/06/06 03:34:24;;;;;;;9.68;6.38;;;;;;;14.86;100.00;96626.13;5038117;28;20303;-72
2021/06/06 03:36:51;;;;;;;10.13;6.70;;;;;;;14.88;100.00;96627.56;5037504;28;20212;-72
2021/06/06 03:39:26;;;;;;;11.20;7.00;;;;;;;14.82;100.00;96631.00;5038156;28;20209;-71
2021/06/06 03:41:53;;;;;;;8.82;6.00;;;;;;;14.87;100.00;96630.44;5039266;28;20254;-72
2021/06/06 03:44:19;;;;;;;12.32;5.95;;;;;;;14.83;100.00;96630.00;5042933;28;20225;-72
2021/06/06 03:46:45;;;;;;;10.70;6.25;;;;;;;14.81;100.00;96631.19;5042497;28;20227;-72
2021/06/06 03:49:13;;;;;;;8.57;5.90;;;;;;;14.86;100.00;96629.59;5042846;28;20205;-72
2021/06/06 03:51:39;;;;;;;9.10;5.40;;;;;;;14.81;100.00;96621.38;5042076;28;20254;-72
2021/06/06 03:54:10;;;;;;;7.65;5.25;;;;;;;14.84;100.00;96631.63;5042876;28;20221;-72
2021/06/06 03:56:36;;;;;;;7.72;5.05;;;;;;;14.92;100.00;96622.72;5041519;28;20262;-72
2021/06/06 03:59:02;;;;;;;8.57;5.35;;;;;;;14.88;100.00;96627.56;5041238;28;20216;-73
2021/06/06 04:01:28;;;;;;;10.05;4.68;;;;;;;14.87;100.00;96622.47;5042257;28;20205;-72
2021/06/06 04:03:54;;;;;;;7.95;5.10;;;;;;;14.88;100.00;96624.91;5042176;28;20299;-72
2021/06/06 04:06:22;;;;;;;10.82;4.72;;;;;;;14.85;100.00;96616.53;5041266;28;20267;-72
2021/06/06 04:08:48;;;;;;;7.15;4.75;;;;;;;14.89;100.00;96623.91;5041714;28;20251;-72
2021/06/06 04:11:14;;;;;;;10.30;4.65;;;;;;;14.85;100.00;96622.63;5042251;28;20209;-72
2021/06/06 04:13:40;;;;;;;8.63;4.88;;;;;;;14.95;100.00;96623.13;5041784;28;20936;-72
2021/06/06 04:16:06;;;;;;;7.80;4.68;;;;;;;14.94;100.00;96621.50;5040788;28;20205;-72
2021/06/06 04:18:33;;;;;;;6.70;5.05;;;;;;;14.96;100.00;96618.66;5042027;28;20212;-72
2021/06/06 04:21:01;;;;;;;11.55;4.50;;;;;;;14.91;100.00;96629.03;5041486;28;20213;-72
2021/06/06 04:23:29;;;;;;;10.82;4.80;;;;;;;14.90;100.00;96620.22;5040544;28;20225;-72
2021/06/06 04:25:55;;;;;;;6.78;4.85;;;;;;;14.91;100.00;96613.91;5040837;28;20233;-72
2021/06/06 04:28:23;;;;;;;8.50;5.25;;;;;;;14.95;100.00;96614.34;5041002;28;20205;-72
2021/06/06 04:30:49;;;;;;;7.90;5.13;;;;;;;14.97;100.00;96620.25;5040683;28;20200;-72
2021/06/06 04:33:16;;;;;;;8.90;5.47;;;;;;;15.00;100.00;96618.06;5040857;28;21163;-71
2021/06/06 04:35:44;;;;;;;11.38;5.72;;;;;;;14.98;100.00;96612.13;5040685;28;20220;-72
2021/06/06 04:38:12;;;;;;;7.53;5.03;;;;;;;15.03;100.00;96614.19;5041040;28;20675;-71
2021/06/06 04:40:40;;;;;;;8.05;5.15;;;;;;;15.03;100.00;96617.69;5041075;28;20201;-72
2021/06/06 04:43:08;;;;;;;9.93;5.93;;;;;;;15.03;100.00;96619.50;5040942;28;20614;-72
2021/06/06 04:45:34;;;;;;;8.63;5.53;;;;;;;15.03;100.00;96617.69;5040028;28;20225;-72
2021/06/06 04:48:10;;;;;;;11.48;6.10;;;;;;;15.05;100.00;96612.19;5042258;28;20208;-71
2021/06/06 04:50:37;;;;;;;11.55;5.88;;;;;;;14.99;100.00;96615.59;5039561;28;20201;-72
2021/06/06 04:53:03;;;;;;;10.55;6.30;;;;;;;15.08;100.00;96612.59;5040842;28;20236;-72
2021/06/06 04:55:29;;;;;;;10.43;5.88;;;;;;;15.09;100.00;96619.53;5040482;28;20200;-72
2021/06/06 04:57:56;;;;;;;8.05;5.63;;;;;;;15.04;100.00;96615.84;5040536;28;20202;-72
2021/06/06 05:00:25;;;;;;;10.65;6.47;;;;;;;15.10;100.00;96618.53;5041307;28;20209;-72
2021/06/06 05:02:51;;;;;;;8.95;5.47;;;;;;;15.14;100.00;96611.81;5041042;28;20240;-72
2021/06/06 05:05:18;;;;;;;8.80;6.10;;;;;;;15.12;100.00;96616.50;5040630;28;20860;-71
2021/06/06 05:07:49;;;;;;;10.23;6.10;;;;;;;15.09;100.00;96608.91;5039943;28;20209;-72
2021/06/06 05:10:15;;;;;;;11.60;6.80;;;;;;;15.18;100.00;96612.25;5040658;28;20209;-71
2021/06/06 05:12:41;;;;;;;11.32;6.47;;;;;;;15.18;100.00;96617.56;5040796;28;20328;-72
2021/06/06 05:15:10;;;;;;;9.85;6.43;;;;;;;15.16;100.00;96620.41;5038998;28;20209;-72
2021/06/06 05:17:36;;;;;;;13.15;6.80;;;;;;;15.16;100.00;96620.41;5040236;28;20216;-72
2021/06/06 05:20:04;;;;;;;9.10;6.30;;;;;;;15.22;100.00;96614.31;5040482;28;20213;-72
2021/06/06 05:22:30;;;;;;;11.05;6.68;;;;;;;15.24;100.00;96620.28;5040687;28;20761;-70
2021/06/06 05:24:56;;;;;;;13.60;6.47;;;;;;;15.25;100.00;96619.25;5040045;28;20201;-71
2021/06/06 05:27:22;;;;;;;13.35;7.72;;;;;;;15.20;100.00;96621.66;5038897;28;20707;-71
2021/06/06 05:29:48;;;;;;;11.18;7.07;;;;;;;15.26;100.00;96616.41;5037376;28;20208;-70
2021/06/06 05:32:15;;;;;;;15.57;6.68;;;;;;;15.25;100.00;96617.41;5039314;28;20205;-71
2021/06/06 05:34:43;;;;;;;13.90;7.47;;;;;;;15.33;100.00;96624.41;5039635;28;20220;-71
2021/06/06 05:37:09;;;;;;;12.40;7.68;;;;;;;15.37;100.00;96621.16;5039220;28;20197;-71
2021/06/06 05:39:35;;;;;;;12.95;7.35;;;;;;;15.43;100.00;96619.56;5039603;28;20201;-71
2021/06/06 05:42:01;;;;;;;14.15;7.80;;;;;;;15.44;100.00;96619.34;5039780;28;20212;-71
2021/06/06 05:44:27;;;;;;;10.75;6.82;;;;;;;15.49;100.00;96616.94;5040228;28;20225;-71
2021/06/06 05:46:53;;;;;;;11.90;7.05;;;;;;;15.39;100.00;96626.28;5040134;28;20307;-71
2021/06/06 05:49:21;;;;;;;12.57;7.00;;;;;;;15.39;100.00;96623.63;5038956;28;20292;-71
2021/06/06 05:51:47;;;;;;;11.02;7.25;;;;;;;15.43;100.00;96620.38;5039361;28;20201;-71
2021/06/06 05:54:13;;;;;;;14.00;7.68;;;;;;;15.51;100.00;96617.53;5038930;28;20311;-71
2021/06/06 05:56:39;;;;;;;9.75;6.68;;;;;;;15.43;100.00;96622.22;5038879;28;20200;-71
2021/06/06 05:59:05;;;;;;;11.13;7.45;;;;;;;15.44;100.00;96622.00;5039782;28;20197;-70
2021/06/06 06:01:31;;;;;;;12.38;7.18;;;;;;;15.44;100.00;96610.56;5038130;28;20259;-71
2021/06/06 06:03:57;;;;;;;11.98;7.22;;;;;;;15.39;100.00;96621.78;5039656;28;20737;-71
2021/06/06 06:06:26;;;;;;;11.82;7.13;;;;;;;15.42;100.00;96616.06;5038445;28;20233;-71
2021/06/06 06:08:52;;;;;;;11.40;7.22;;;;;;;15.40;100.00;96623.44;5039059;28;20205;-71
2021/06/06 06:11:21;;;;;;;12.70;7.30;;;;;;;15.38;100.00;96616.66;5038624;28;20947;-70
2021/06/06 06:13:47;;;;;;;13.00;7.50;;;;;;;15.27;100.00;96620.72;5038795;28;20217;-71
2021/06/06 06:16:16;;;;;;;11.80;7.22;;;;;;;15.33;100.00;96617.25;5038283;28;20205;-71
2021/06/06 06:18:42;;;;;;;13.52;7.60;;;;;;;15.38;100.00;96619.34;5039010;28;20205;-72
2021/06/06 06:21:11;;;;;;;12.73;7.72;;;;;;;15.37;100.00;96609.72;5039142;28;20197;-72
2021/06/06 06:23:38;;;;;;;16.30;8.35;;;;;;;15.40;100.00;96617.28;5039593;28;20278;-72
2021/06/06 06:26:06;;;;;;;13.77;7.60;;;;;;;15.40;100.00;96617.28;5038844;28;20216;-72
2021/06/06 06:28:33;;;;;;;12.10;7.68;;;;;;;15.44;100.00;96621.19;5038754;28;20677;-72
2021/06/06 06:31:00;;;;;;;11.98;7.55;;;;;;;15.47;100.00;96613.63;5036371;28;20201;-71
2021/06/06 06:33:26;;;;;;;10.93;7.13;;;;;;;15.44;100.00;96622.00;5040701;28;20217;-72
2021/06/06 06:35:52;;;;;;;13.32;7.68;;;;;;;15.49;100.00;96616.09;5037884;28;20201;-72
2021/06/06 06:38:18;;;;;;;13.80;7.22;;;;;;;15.50;100.00;96617.75;5039501;28;20211;-71
2021/06/06 06:40:46;;;;;;;10.35;6.97;;;;;;;15.54;100.00;96624.28;5040593;28;20212;-72
2021/06/06 06:43:12;;;;;;;13.20;6.97;;;;;;;15.47;100.00;96623.47;5038136;28;20225;-73
2021/06/06 06:45:40;;;;;;;12.95;7.32;;;;;;;15.57;100.00;96616.75;5037575;28;20221;-71
2021/06/06 06:48:10;;;;;;;12.65;6.97;;;;;;;15.60;100.00;96618.19;5037737;28;20209;-72
2021/06/06 06:50:37;;;;;;;11.02;6.55;;;;;;;15.56;100.00;96612.44;5038094;28;20251;-72
2021/06/06 06:53:04;;;;;;;14.30;7.30;;;;;;;15.72;100.00;96613.94;5037644;28;20225;-73
2021/06/06 06:55:30;;;;;;;11.43;6.63;;;;;;;15.76;100.00;96623.16;5037298;28;20694;-72
2021/06/06 06:58:00;;;;;;;9.38;6.25;;;;;;;15.87;100.00;96615.41;5039355;28;20197;-72
2021/06/06 07:00:29;;;;;;;9.95;5.97;;;;;;;15.91;100.00;96614.84;5039406;28;20205;-72
2021/06/06 07:02:55;;;;;;;11.45;6.18;;;;;;;15.98;100.00;96614.84;5039613;28;20263;-72
2021/06/06 07:05:21;;;;;;;9.40;5.78;;;;;;;15.98;100.00;96612.19;5037936;28;20213;-72
2021/06/06 07:07:47;;;;;;;10.10;6.30;;;;;;;15.92;100.00;96613.81;5037781;28;20199;-72
2021/06/06 07:10:17;;;;;;;10.38;5.78;;;;;;;15.82;100.00;96627.69;5038297;28;20209;-71
2021/06/06 07:12:43;;;;;;;9.82;6.18;;;;;;;15.83;100.00;96624.00;5037420;28;20706;-72
2021/06/06 07:15:15;;;;;;;10.38;6.43;;;;;;;15.89;100.00;96618.72;5037831;28;20212;-72
2021/06/06 07:17:42;;;;;;;14.75;6.88;;;;;;;15.91;100.00;96612.19;5038769;28;20202;-71
2021/06/06 07:20:13;;;;;;;10.82;6.85;;;;;;;16.01;100.00;96620.59;5038180;28;20675;-72
2021/06/06 07:22:39;;;;;;;10.00;6.25;;;;;;;15.97;100.00;96616.69;5038134;28;20224;-72
2021/06/06 07:25:07;;;;;;;11.77;6.15;;;;;;;15.90;100.00;96623.00;5037032;28;20205;-72
2021/06/06 07:27:36;;;;;;;11.93;6.72;;;;;;;15.83;100.00;96624.81;5037676;28;20217;-72
2021/06/06 07:30:05;;;;;;;11.40;6.20;;;;;;;15.92;100.00;96616.47;5036095;28;20290;-72
2021/06/06 07:32:32;;;;;;;10.55;6.40;;;;;;;15.95;100.00;96610.75;5039082;28;20202;-71
2021/06/06 07:35:00;;;;;;;9.73;6.22;;;;;;;15.88;100.00;96622.38;5038126;28;20197;-72
2021/06/06 07:37:26;;;;;;;9.45;5.97;;;;;;;15.93;100.00;96631.38;5038288;28;20296;-72
2021/06/06 07:39:52;;;;;;;12.23;6.35;;;;;;;15.95;100.00;96629.34;5038623;28;20227;-72
2021/06/06 07:42:18;;;;;;;11.07;6.60;;;;;;;16.00;100.00;96624.25;5037845;28;20209;-72
2021/06/06 07:44:44;;;;;;;10.43;6.47;;;;;;;16.03;100.00;96621.19;5038637;28;20559;-72
2021/06/06 07:47:10;;;;;;;9.25;6.25;;;;;;;15.97;100.00;96622.00;5037736;28;20257;-71
2021/06/06 07:49:38;;;;;;;11.13;6.57;;;;;;;16.05;100.00;96618.31;5038057;28;20678;-72
2021/06/06 07:52:06;;;;;;;10.02;6.57;;;;;;;15.94;100.00;96621.59;5037703;28;20197;-73
2021/06/06 07:54:32;;;;;;;12.75;7.15;;;;;;;16.01;100.00;96617.09;5038281;28;20221;-72
2021/06/06 07:56:59;;;;;;;10.18;6.57;;;;;;;16.06;100.00;96615.50;5038116;28;20200;-71
2021/06/06 07:59:26;;;;;;;9.85;5.82;;;;;;;16.10;100.00;96618.53;5036960;28;20216;-72
2021/06/06 08:01:52;;;;;;;11.57;6.18;;;;;;;16.08;100.00;96612.63;5037688;28;20206;-71
2021/06/06 08:04:18;;;;;;;9.10;6.32;;;;;;;16.06;100.00;96615.50;5038294;28;20399;-72
2021/06/06 08:06:47;;;;;;;9.73;6.60;;;;;;;16.15;100.00;96613.44;5035831;28;20714;-71
2021/06/06 08:09:14;;;;;;;8.85;5.97;;;;;;;16.06;100.00;96622.63;5038126;28;20205;-72
2021/06/06 08:11:41;;;;;;;7.60;5.68;;;;;;;16.06;100.00;96619.97;5038587;28;20206;-71
2021/06/06 08:14:07;;;;;;;9.30;5.68;;;;;;;16.06;100.00;96618.16;5038474;28;20241;-71
2021/06/06 08:16:36;;;;;;;10.63;6.20;;;;;;;16.06;100.00;96606.69;5038666;28;20201;-73
2021/06/06 08:19:03;;;;;;;12.20;6.18;;;;;;;16.07;100.00;96609.13;5039384;28;20289;-72
2021/06/06 08:21:33;;;;;;;9.13;5.70;;;;;;;16.09;100.00;96609.75;5037778;28;21081;-72
2021/06/06 08:24:00;;;;;;;7.30;4.32;;;;;;;16.14;100.00;96607.31;5038768;28;20574;-72
2021/06/06 08:26:27;;;;;;;7.80;3.85;;;;;;;16.24;100.00;96615.72;5039922;28;20753;-72
2021/06/06 08:28:55;;;;;;;4.72;3.20;;;;;;;16.27;100.00;96615.34;5038765;28;20590;-72
2021/06/06 08:31:24;;;;;;;4.57;2.83;;;;;;;16.21;100.00;96604.66;5041849;28;20205;-72
2021/06/06 08:33:50;;;;;;;7.43;3.10;;;;;;;16.31;100.00;96603.28;5042549;28;20221;-72
2021/06/06 08:36:19;;;;;;;5.88;3.10;;;;;;;16.30;100.00;96606.94;5040664;28;20205;-72
2021/06/06 08:38:45;;;;;;;5.13;2.80;;;;;;;16.42;100.00;96607.16;5040472;28;21168;-71
2021/06/06 08:41:16;;;;;;;3.85;2.42;;;;;;;16.51;100.00;96604.13;5041142;28;20691;-72
2021/06/06 08:43:46;;;;;;;5.25;2.60;;;;;;;16.62;100.00;96600.81;5042086;28;20225;-72
2021/06/06 08:46:14;;;;;;;5.55;2.13;;;;;;;16.67;100.00;96603.69;5039879;28;20221;-72
2021/06/06 08:48:40;;;;;;;3.50;2.15;;;;;;;16.77;100.00;96606.75;5041356;28;20202;-72
2021/06/06 08:51:18;;;;;;;3.30;2.30;;;;;;;16.78;100.00;96603.09;5041335;28;20201;-72
2021/06/06 08:53:53;;;;;;;3.60;1.90;;;;;;;16.91;100.00;96601.22;5040950;28;20221;-71
2021/06/06 08:56:24;;;;;;;4.53;2.60;;;;;;;16.95;100.00;96601.63;5041236;28;20239;-73
2021/06/06 08:58:56;;;;;;;4.20;2.40;;;;;;;16.93;100.00;96603.66;5041244;28;20205;-72
2021/06/06 09:01:32;;;;;;;3.90;2.10;;;;;;;16.88;100.00;96606.13;5041063;28;20205;-72
2021/06/06 09:04:00;;;;;;;2.80;1.70;;;;;;;16.78;100.00;96603.91;5041686;28;20880;-72
2021/06/06 09:06:36;;;;;;;2.75;1.77;;;;;;;16.79;100.00;96607.34;5040536;28;20769;-72
2021/06/06 09:09:03;;;;;;;2.67;1.75;;;;;;;16.84;100.00;96605.75;5041904;28;21093;-72
2021/06/06 09:11:32;;;;;;;4.13;1.80;;;;;;;16.80;100.00;96604.53;5040702;28;20679;-71
2021/06/06 09:13:58;;;;;;;3.33;1.90;;;;;;;16.75;100.00;96606.13;5042743;28;20217;-72
2021/06/06 09:16:27;;;;;;;2.72;1.80;;;;;;;16.77;100.00;96606.75;5041185;28;20749;-72
2021/06/06 09:19:03;;;;;;;1.88;1.48;;;;;;;16.79;100.00;96605.53;5040258;28;20205;-71
2021/06/06 09:21:30;;;;;;;1.65;1.10;;;;;;;16.78;100.00;96609.22;5040474;28;20736;-72
2021/06/06 09:24:11;;;;;;;2.83;0.90;;;;;;;16.71;100.00;96608.41;5043230;28;20253;-72
2021/06/06 09:26:40;;;;;;;1.42;1.00;;;;;;;16.73;100.00;96608.19;5040386;28;20225;-73
2021/06/06 09:29:11;;;;;;;1.20;1.08;;;;;;;16.81;100.00;96602.66;5037340;28;20201;-73
2021/06/06 09:31:37;;;;;;;1.77;1.17;;;;;;;16.85;100.00;96610.03;5041101;28;20212;-73
2021/06/06 09:34:07;;;;;;;1.58;1.00;;;;;;;16.93;100.00;96608.97;5039469;28;20307;-72
2021/06/06 09:36:38;;;;;;;1.75;1.15;;;;;;;16.90;100.00;96604.91;5039577;28;20242;-72
2021/06/06 09:39:17;;;;;;;1.88;1.10;;;;;;;16.98;100.00;96603.84;5040446;28;20202;-72
2021/06/06 09:41:47;;;;;;;1.75;1.10;;;;;;;16.95;100.00;96604.28;5039924;28;20213;-72
2021/06/06 09:44:23;;;;;;;1.40;1.20;;;;;;;17.02;100.00;96605.09;5040321;28;20229;-72
2021/06/06 09:46:52;;;;;;;1.50;1.20;;;;;;;17.14;100.00;96607.75;5038501;28;20232;-71
2021/06/06 09:49:30;;;;;;;2.70;1.10;;;;;;;17.04;100.00;96617.16;5039921;28;20216;-72
2021/06/06 09:51:58;;;;;;;1.58;1.27;;;;;;;17.06;100.00;96611.66;5040692;28;20288;-72
2021/06/06 09:54:31;;;;;;;1.73;1.23;;;;;;;17.27;100.00;96612.22;5039751;28;20813;-72
2021/06/06 09:57:01;;;;;;;1.75;1.25;;;;;;;17.16;100.00;96613.66;5038635;28;20197;-71
2021/06/06 09:59:30;;;;;;;1.92;1.40;;;;;;;17.07;100.00;96605.28;5040103;28;20691;-71
2021/06/06 10:02:21;;;;;;;1.92;1.40;;;;;;;17.05;100.00;96607.34;5039867;28;20238;-72
2021/06/06 10:05:03;;;;;;;2.38;1.52;;;;;;;17.09;100.00;96604.88;5038241;28;20217;-71
2021/06/06 10:07:31;;;;;;;1.92;1.50;;;;;;;17.08;100.00;96607.72;5038768;28;20282;-72
2021/06/06 10:09:59;;;;;;;2.88;1.63;;;;;;;17.13;100.00;96611.44;5038407;28;20638;-71
2021/06/06 10:12:32;;;;;;;2.10;1.45;;;;;;;17.22;100.00;96614.66;5038911;28;20687;-72
2021/06/06 10:15:01;;;;;;;1.75;1.40;;;;;;;17.20;100.00;96609.56;5039363;28;20251;-72
2021/06/06 10:17:36;;;;;;;3.80;1.80;;;;;;;17.26;100.00;96616.75;5038550;28;20201;-72
2021/06/06 10:20:15;;;;;;;2.35;1.55;;;;;;;17.26;100.00;96616.75;5038036;28;20243;-72
2021/06/06 10:22:48;;;;;;;2.35;1.75;;;;;;;17.26;100.00;96614.09;5039176;28;20236;-72
2021/06/06 10:25:21;;;;;;;2.50;1.70;;;;;;;17.18;100.00;96614.28;5037085;28;20212;-72
2021/06/06 10:27:53;;;;;;;2.53;1.83;;;;;;;17.22;100.00;96610.19;5038388;28;20220;-72
2021/06/06 10:30:27;;;;;;;3.10;2.00;;;;;;;17.34;100.00;96616.53;5034704;28;20679;-72
2021/06/06 10:32:59;;;;;;;2.60;2.10;;;;;;;17.35;100.00;96614.66;5038393;28;20913;-72
2021/06/06 10:35:29;;;;;;;3.53;2.10;;;;;;;17.25;100.00;96608.97;5038526;28;20295;-72
2021/06/06 10:37:57;;;;;;;3.03;1.88;;;;;;;17.28;100.00;96613.88;5038402;28;20204;-72
2021/06/06 10:40:26;;;;;;;3.70;2.65;;;;;;;17.36;100.00;96610.97;5038444;28;20213;-71
2021/06/06 10:42:59;;;;;;;3.85;2.20;;;;;;;17.40;100.00;96613.03;5038506;28;20235;-72
2021/06/06 10:45:29;;;;;;;4.18;2.58;;;;;;;17.50;100.00;96599.25;5036756;28;20239;-72
2021/06/06 10:48:00;;;;;;;4.85;2.85;;;;;;;17.44;100.00;96606.25;5036965;28;20218;-72
2021/06/06 10:50:33;;;;;;;5.30;2.92;;;;;;;17.48;100.00;96604.00;5038123;28;20223;-72
2021/06/06 10:53:12;;;;;;;3.97;2.63;;;;;;;17.40;100.00;96604.19;5037650;28;20225;-72
2021/06/06 10:55:54;;;;;;;7.93;3.40;;;;;;;17.37;100.00;96602.78;5036483;28;20251;-72
2021/06/06 10:58:33;;;;;;;5.18;3.30;;;;;;;17.53;100.00;96598.84;5038700;28;20204;-71
2021/06/06 11:01:02;;;;;;;5.88;4.07;;;;;;;17.63;100.00;96599.19;5036424;28;20208;-72
2021/06/06 11:03:34;;;;;;;8.02;3.75;;;;;;;17.72;100.00;96602.22;5037967;28;20307;-72
2021/06/06 11:06:02;;;;;;;6.45;4.18;;;;;;;17.74;100.00;96596.69;5037465;28;20254;-72
2021/06/06 11:08:41;;;;;;;7.10;4.10;;;;;;;17.68;100.00;96599.38;5038129;28;20732;-72
2021/06/06 11:11:22;;;;;;;7.03;4.40;;;;;;;17.68;100.00;96594.06;5038245;28;20562;-72
2021/06/06 11:13:52;;;;;;;5.95;4.07;;;;;;;17.72;100.00;96588.91;5038591;28;20224;-72
2021/06/06 11:16:29;;;;;;;7.07;4.53;;;;;;;17.64;100.00;96592.84;5035963;28;20209;-72
2021/06/06 11:18:59;;;;;;;8.13;4.30;;;;;;;17.47;100.00;96592.50;5038405;28;20258;-71
2021/06/06 11:21:37;;;;;;;6.47;4.63;;;;;;;17.40;100.00;96583.72;5037782;28;20232;-72
2021/06/06 11:24:06;;;;;;;6.95;4.38;;;;;;;17.56;100.00;96585.91;5037317;28;20224;-72
2021/06/06 11:26:42;;;;;;;7.35;5.00;;;;;;;17.54;100.00;96587.97;5037393;28;20367;-73
2021/06/06 11:29:14;;;;;;;6.07;4.25;;;;;;;17.54;100.00;96590.63;5034871;28;20211;-72
2021/06/06 11:31:58;;;;;;;7.63;4.50;;;;;;;17.53;100.00;96581.00;5038219;28;20201;-72